KBAB/BAB METAR and TAF weather

Enter ICAO airport designator
Station Type Date Time Source
KBAB METAR 2018/12/10 23:58 UTC NOAA

KBAB 102358Z AUTO 32004KT 10SM CLR 15/08 A3013 RMK AO2 SLP206 T01500075 10152 20097 56011 $


Station Type Date Time Source
KBAB Decoded METAR 2018/12/10 23:58 UTC NOAA

Marysville, Beale Air Force Base, CA, United States (KBAB) 39-08N 121-26W
Dec 10, 2018 - 06:58 PM EST / 2018.12.10 2358 UTC
Wind: from the NW (320 degrees) at 5 MPH (4 KT):0
Visibility: 10 mile(s):0
Sky conditions: clear
Temperature: 59.0 F (15.0 C)
Dew Point: 45.5 F (7.5 C)
Relative Humidity: 60%
Pressure (altimeter): 30.13 in. Hg (1020 hPa)
Pressure tendency: 0.03 inches (1.1 hPa) lower than three hours ago
ob: KBAB 102358Z AUTO 32004KT 10SM CLR 15/08 A3013 RMK AO2 SLP206 T01500075 10152 20097 56011
cycle: 0

Station Type Date Time Source
KBAB TAF 2018/12/10 19:06 UTC NOAA

TAF TAF KBAB 101900Z 1019/1201 32006KT 9000 BR SCT040 BKN120 QNH3020INS
BECMG 1020/1021 VRB06KT 9999 NSW SCT040 BKN150 QNH3018INS
BECMG 1102/1103 33006KT 9999 SCT200 QNH3021INS TX12/1022Z TN03/1112Z


Example: see airport list